Flight Track Log - Related Links

Times and Time Zones

All times are in EDT time to prevent confusion due to time zone crossing. See the N26LJ flight status page for this flight to view local times or setup timezone preferences in your user account.

Time Position Orientation Groundspeed Altitude Reporting Facility
EDT Latitude Longitude Course Direction KTS MPH feet Rate Location/Type
Mon 02:06:47 PM 38.9980 -74.9030 142° Southeast 120 138 300  Level FlightAware ADS-B
Mon 02:07:02 PM 38.9930 -74.8930 123° Southeast 145 167 500 800 Climbing FlightAware ADS-B
Mon 02:07:17 PM 38.9890 -74.8800 112° Southeast 158 182 700 800 Climbing FlightAware ADS-B
Mon 02:07:32 PM 38.9870 -74.8660 100° East 164 189 900 720 Climbing FlightAware ADS-B
Mon 02:07:42 PM 38.9860 -74.8620 108° East 166 191 1,000 857 Climbing FlightAware ADS-B
Mon 02:08:07 PM 38.9980 -74.8410 54° Northeast 176 203 1,400 300 Climbing FlightAware ADS-B
Mon 02:08:42 PM 39.0280 -74.8290 17° North 185 213 1,300 -218 Descending FlightAware ADS-B
Mon 02:09:02 PM 39.0460 -74.8210 19° North 201 231 1,200 -300 Descending FlightAware ADS-B
Mon 02:09:22 PM 39.0630 -74.8140 18° North 204 235 1,100 -267 Descending FlightAware ADS-B
Mon 02:09:47 PM 39.0870 -74.8040 18° North 206 237 1,000 -300 Descending FlightAware ADS-B
Mon 02:10:02 PM 39.1000 -74.7960 26° Northeast 204 235 900 -133 Descending FlightAware ADS-B
Mon 02:10:32 PM 39.1200 -74.7730 42° Northeast 195 224 900 400 Level FlightAware ADS-B
Mon 02:11:02 PM 39.1460 -74.7610 20° North 168 193 1,300 960 Climbing FlightAware ADS-B
Mon 02:11:22 PM 39.1620 -74.7570 11° North 166 191 1,700 1,200 Climbing FlightAware ADS-B
Mon 02:11:47 PM 39.1800 -74.7520 12° North 162 186 2,200 1,333 Climbing FlightAware ADS-B
Mon 02:12:07 PM 39.1940 -74.7490 North 150 173 2,700 1,467 Climbing FlightAware ADS-B
Mon 02:12:32 PM 39.2141 -74.7439 11° North 154 177 3,300 1,245 Climbing FlightAware ADS-B
Mon 02:13:00 PM 39.2345 -74.7387 11° North 154 177 3,800 1,091 Climbing FlightAware ADS-B
Mon 02:13:16 PM 39.2459 -74.7358 11° North 157 181 4,100 1,125 Climbing FlightAware ADS-B
Mon 02:13:32 PM 39.2568 -74.7331 11° North 155 178 4,400 1,200 Climbing FlightAware ADS-B
Mon 02:13:51 PM 39.2700 -74.7297 11° North 154 177 4,800 667 Climbing FlightAware ADS-B
Mon 02:14:17 PM 39.2892 -74.7251 11° North 162 186 4,900 146 Climbing FlightAware ADS-B
Mon 02:14:32 PM 39.3021 -74.7219 11° North 183 211 4,900  Level FlightAware ADS-B
Mon 02:14:49 PM 39.3166 -74.7183 11° North 192 221 4,900  Level FlightAware ADS-B
Mon 02:15:09 PM 39.3337 -74.7140 11° North 196 226 4,900  Level FlightAware ADS-B
Mon 02:15:34 PM 39.3570 -74.7082 11° North 197 227 4,900  Level FlightAware ADS-B
Mon 02:15:50 PM 39.3707 -74.7048 11° North 200 230 4,900  Level FlightAware ADS-B
Mon 02:16:10 PM 39.3897 -74.7001 11° North 201 231 4,900  Level FlightAware ADS-B
Mon 02:16:26 PM 39.4039 -74.6965 11° North 202 232 4,900  Level FlightAware ADS-B
Mon 02:16:41 PM 39.4176 -74.6931 11° North 202 232 4,900  Level FlightAware ADS-B
Mon 02:17:00 PM 39.4356 -74.6887 11° North 205 236 4,900  Level FlightAware ADS-B
Mon 02:17:16 PM 39.4503 -74.6849 11° North 210 242 4,900  Level FlightAware ADS-B
Mon 02:17:34 PM 39.4676 -74.6807 11° North 212 244 4,900  Level FlightAware ADS-B
Mon 02:17:52 PM 39.4853 -74.6762 11° North 214 246 4,900  Level FlightAware ADS-B
Mon 02:18:19 PM 39.5113 -74.6698 11° North 213 245 4,900  Level FlightAware ADS-B
Mon 02:18:35 PM 39.5268 -74.6660 11° North 213 245 4,900  Level FlightAware ADS-B
Mon 02:18:52 PM 39.5436 -74.6618 11° North 213 245 4,900  Level FlightAware ADS-B
Mon 02:19:15 PM 39.5650 -74.6566 11° North 210 242 4,900  Level FlightAware ADS-B
Mon 02:19:31 PM 39.5809 -74.6526 11° North 211 243 4,900  Level FlightAware ADS-B
Mon 02:19:46 PM 39.5953 -74.6489 11° North 211 243 4,900  Level FlightAware ADS-B
Mon 02:20:02 PM 39.6100 -74.6452 11° North 210 242 4,900  Level FlightAware ADS-B
Mon 02:20:20 PM 39.6271 -74.6409 11° North 210 242 4,900  Level FlightAware ADS-B
Mon 02:20:37 PM 39.6434 -74.6368 11° North 210 242 4,900  Level FlightAware ADS-B
Mon 02:20:52 PM 39.6579 -74.6332 11° North 210 242 4,900  Level FlightAware ADS-B
Mon 02:21:07 PM 39.6724 -74.6295 11° North 210 242 4,900  Level FlightAware ADS-B
Mon 02:21:25 PM 39.6898 -74.6252 11° North 209 241 4,900  Level FlightAware ADS-B
Mon 02:21:43 PM 39.7070 -74.6210 11° North 211 243 4,900  Level FlightAware ADS-B
Mon 02:22:14 PM 39.7360 -74.6139 11° North 212 244 4,900  Level FlightAware ADS-B
Mon 02:22:40 PM 39.7613 -74.6075 11° North 213 245 4,900  Level FlightAware ADS-B
Mon 02:23:01 PM 39.7819 -74.6022 11° North 210 242 4,900  Level FlightAware ADS-B
Mon 02:23:30 PM 39.8088 -74.5954 11° North 209 241 4,900  Level FlightAware ADS-B
Mon 02:23:46 PM 39.8242 -74.5915 11° North 210 242 4,900  Level FlightAware ADS-B
Mon 02:24:02 PM 39.8393 -74.5876 11° North 211 243 4,900  Level FlightAware ADS-B
Mon 02:24:18 PM 39.8555 -74.5835 11° North 214 246 4,900  Level FlightAware ADS-B
Mon 02:24:32 PM 39.8691 -74.5801 11° North 215 247 4,900  Level FlightAware ADS-B
Mon 02:24:48 PM 39.8840 -74.5764 11° North 215 247 4,900  Level FlightAware ADS-B
Mon 02:25:03 PM 39.8992 -74.5726 11° North 214 246 4,900  Level FlightAware ADS-B
Mon 02:25:16 PM 39.9113 -74.5695 11° North 214 246 4,900  Level FlightAware ADS-B
Mon 02:25:31 PM 39.9264 -74.5657 11° North 215 247 4,900  Level FlightAware ADS-B
Mon 02:25:50 PM 39.9446 -74.5610 11° North 213 245 4,900  Level FlightAware ADS-B
Mon 02:26:06 PM 39.9607 -74.5570 11° North 214 246 4,900  Level FlightAware ADS-B
Mon 02:26:24 PM 39.9782 -74.5526 11° North 214 246 4,900  Level FlightAware ADS-B
Mon 02:26:40 PM 39.9934 -74.5487 11° North 212 244 4,900  Level FlightAware ADS-B
Mon 02:26:55 PM 40.0079 -74.5450 11° North 213 245 4,900  Level FlightAware ADS-B
Mon 02:27:12 PM 40.0239 -74.5410 11° North 212 244 4,900  Level FlightAware ADS-B
Mon 02:27:27 PM 40.0391 -74.5372 11° North 213 245 4,900  Level FlightAware ADS-B
Mon 02:27:43 PM 40.0541 -74.5333 11° North 213 245 4,900  Level FlightAware ADS-B
Mon 02:28:03 PM 40.0736 -74.5283 11° North 212 244 4,900  Level FlightAware ADS-B
Mon 02:28:18 PM 40.0882 -74.5245 11° North 212 244 4,900  Level FlightAware ADS-B
Mon 02:28:34 PM 40.1031 -74.5207 11° North 211 243 4,900  Level FlightAware ADS-B
Mon 02:28:49 PM 40.1177 -74.5170 11° North 210 242 4,900  Level FlightAware ADS-B
Mon 02:29:04 PM 40.1320 -74.5133 11° North 211 243 4,900  Level FlightAware ADS-B
Mon 02:29:23 PM 40.1507 -74.5086 11° North 209 241 4,900 -171 Level FlightAware ADS-B
Mon 02:29:39 PM 40.1655 -74.5048 11° North 214 246 4,800 -486 Descending FlightAware ADS-B
Mon 02:30:00 PM 40.1868 -74.5005 North 218 251 4,600 -429 Descending FlightAware ADS-B
Mon 02:30:07 PM 40.1930 -74.5013 354° North 216 249 4,600 -545 Level FlightAware ADS-B
Mon 02:30:22 PM 40.2082 -74.5037 353° North 215 247 4,400 -643 Descending FlightAware ADS-B
Mon 02:30:35 PM 40.2205 -74.5057 353° North 213 245 4,300 -429 Descending FlightAware ADS-B
Mon 02:30:50 PM 40.2358 -74.5082 353° North 213 245 4,200 -387 Descending FlightAware ADS-B
Mon 02:31:06 PM 40.2514 -74.5106 353° North 211 243 4,100 -581 Descending FlightAware ADS-B
Mon 02:31:21 PM 40.2658 -74.5128 353° North 206 237 3,900 -387 Descending FlightAware ADS-B
Mon 02:31:37 PM 40.2802 -74.5151 353° North 197 227 3,900  Level FlightAware ADS-B
Mon 02:31:57 PM 40.2979 -74.5180 353° North 188 216 3,900  Level FlightAware ADS-B
Mon 02:32:16 PM 40.3140 -74.5209 352° North 185 213 3,900  Level FlightAware ADS-B
Mon 02:32:31 PM 40.3268 -74.5233 352° North 184 212 3,900  Level FlightAware ADS-B
Mon 02:32:49 PM 40.3417 -74.5259 352° North 186 214 3,900  Level FlightAware ADS-B
Mon 02:33:05 PM 40.3560 -74.5283 353° North 191 220 3,900  Level FlightAware ADS-B
Mon 02:33:24 PM 40.3729 -74.5310 353° North 196 226 3,900  Level FlightAware ADS-B
Mon 02:33:40 PM 40.3870 -74.5334 353° North 197 227 3,900  Level FlightAware ADS-B
Mon 02:34:09 PM 40.4133 -74.5380 352° North 199 229 3,900  Level FlightAware ADS-B
Mon 02:34:24 PM 40.4274 -74.5406 352° North 199 229 3,900  Level FlightAware ADS-B
Mon 02:34:43 PM 40.4447 -74.5436 352° North 199 229 3,900  Level FlightAware ADS-B
Mon 02:35:00 PM 40.4606 -74.5464 352° North 199 229 3,900  Level FlightAware ADS-B
Mon 02:35:18 PM 40.4764 -74.5492 352° North 200 230 3,900  Level FlightAware ADS-B
Mon 02:35:34 PM 40.4917 -74.5518 353° North 201 231 3,900  Level FlightAware ADS-B
Mon 02:35:52 PM 40.5080 -74.5545 353° North 201 231 3,900  Level FlightAware ADS-B
Mon 02:36:17 PM 40.5305 -74.5583 353° North 200 230 3,900  Level FlightAware ADS-B
Mon 02:36:32 PM 40.5447 -74.5611 351° North 200 230 3,900 -167 Level FlightAware ADS-B
Mon 02:36:53 PM 40.5640 -74.5645 352° North 200 230 3,800 -286 Descending FlightAware ADS-B
Mon 02:37:14 PM 40.5832 -74.5679 352° North 198 228 3,700 -300 Descending FlightAware ADS-B
Mon 02:37:33 PM 40.6003 -74.5710 352° North 197 227 3,600 -381 Descending FlightAware ADS-B
Mon 02:38:17 PM 40.6380 -74.5780 352° North 194 223 3,300 -407 Descending FlightAware ADS-B
Mon 02:38:32 PM 40.6500 -74.5800 353° North 193 222 3,200 -450 Descending FlightAware ADS-B
Mon 02:38:57 PM 40.6710 -74.5850 350° North 189 217 3,000 -360 Descending FlightAware ADS-B
Mon 02:39:22 PM 40.6920 -74.5900 350° North 189 217 2,900 -100 Descending FlightAware ADS-B
Mon 02:39:57 PM 40.7240 -74.5960 352° North 177 204 2,900  Level FlightAware ADS-B
Mon 02:40:22 PM 40.7420 -74.6000 350° North 177 204 2,900  Level FlightAware ADS-B
Mon 02:41:07 PM 40.7710 -74.5610 46° Northeast 183 211 2,900  Level FlightAware ADS-B
Mon 02:41:32 PM 40.7880 -74.5420 40° Northeast 184 212 2,900  Level FlightAware ADS-B
Mon 02:42:02 PM 40.8060 -74.5220 40° Northeast 179 206 2,900 -71 Level FlightAware ADS-B
Mon 02:42:27 PM 40.8242 -74.5013 41° Northeast 2,900 -109 Level FlightAware ADS-B
Mon 02:42:57 PM 40.8410 -74.4820 41° Northeast 170 196 2,800 -554 Descending FlightAware ADS-B
Mon 02:43:32 PM 40.8610 -74.4590 41° Northeast 182 209 2,300 -500 Descending FlightAware ADS-B
Mon 02:43:57 PM 40.8760 -74.4420 41° Northeast 182 209 2,300 -140 Level FlightAware ADS-B
Mon 02:46:18 PM 40.9606 -74.3506 39° Northeast 1,900 -163 Descending FlightAware ADS-B
Mon 02:46:24 PM 40.9638 -74.3472 39° Northeast 151 174 1,900  Level FlightAware ADS-B
Mon 02:46:32 PM 40.9681 -74.3423 41° Northeast 151 174 1,900  Level FlightAware ADS-B
Mon 02:46:47 PM 40.9762 -74.3335 39° Northeast 153 176 1,900  Level FlightAware ADS-B
Mon 02:47:42 PM 40.9707 -74.2910 100° East 146 168 1,900  Level FlightAware ADS-B
Mon 02:47:47 PM 40.9678 -74.2889 151° Southeast 144 166 1,900  Level FlightAware ADS-B
Mon 02:48:23 PM 40.9450 -74.2907 183° South 140 161 1,900  Level FlightAware ADS-B
Mon 02:48:48 PM 40.9291 -74.2937 188° South 140 161 1,900 87 Level FlightAware ADS-B
Mon 02:49:32 PM 40.9000 -74.3167 188° South 141 162 2,000  Climbing New York TRACON
Mon 02:50:32 PM 40.8833 -74.3333 217° Southwest 128 147 1,900 -300 Descending New York TRACON
Mon 02:51:32 PM 40.8500 -74.3667 217° Southwest 101 116 1,400 -400 Descending New York TRACON
Mon 02:52:32 PM 40.8333 -74.3833 217° Southwest 94 108 1,100 -300 Descending New York TRACON
Mon 02:54:00 PM 40.7993 -74.4149 201° Southwest  Level Estimated
Mon 03:01:00 PM 40.7993 -74.4149 201° Southwest  Level Estimated
Mon 03:02:00 PM 40.7993 -74.4149 201° Southwest  Level Estimated
Mon 03:03:00 PM 40.7993 -74.4149 201° Southwest  Level Estimated

Login

Don't have an account? Register now (free) for customized features, flight alerts, and more!